sensor_id;sensor_type;location;lat;lon;timestamp;P1;durP1;ratioP1;P2;durP2;ratioP2
20090;SDS011;10205;49.678;6.560;2023-03-01T00:01:08;7.67;;;6.07;;
20090;SDS011;10205;49.678;6.560;2023-03-01T00:03:38;7.43;;;5.23;;
20090;SDS011;10205;49.678;6.560;2023-03-01T00:06:05;7.20;;;5.43;;
20090;SDS011;10205;49.678;6.560;2023-03-01T00:08:34;7.90;;;6.00;;
20090;SDS011;10205;49.678;6.560;2023-03-01T00:11:03;7.13;;;5.50;;
20090;SDS011;10205;49.678;6.560;2023-03-01T00:13:34;7.23;;;5.80;;
20090;SDS011;10205;49.678;6.560;2023-03-01T00:16:02;8.67;;;6.07;;
20090;SDS011;10205;49.678;6.560;2023-03-01T00:18:30;8.37;;;6.17;;
20090;SDS011;10205;49.678;6.560;2023-03-01T00:20:57;6.97;;;5.73;;
20090;SDS011;10205;49.678;6.560;2023-03-01T00:23:25;7.43;;;5.17;;
20090;SDS011;10205;49.678;6.560;2023-03-01T00:25:54;7.33;;;6.00;;
20090;SDS011;10205;49.678;6.560;2023-03-01T03:05:19;6.90;;;5.53;;
20090;SDS011;10205;49.678;6.560;2023-03-01T03:07:49;9.37;;;6.30;;
20090;SDS011;10205;49.678;6.560;2023-03-01T03:10:18;7.13;;;5.83;;
20090;SDS011;10205;49.678;6.560;2023-03-01T03:12:48;6.93;;;5.40;;
20090;SDS011;10205;49.678;6.560;2023-03-01T03:15:17;12.83;;;6.60;;
20090;SDS011;10205;49.678;6.560;2023-03-01T03:17:46;10.00;;;6.27;;
20090;SDS011;10205;49.678;6.560;2023-03-01T03:20:15;8.23;;;6.27;;
20090;SDS011;10205;49.678;6.560;2023-03-01T03:22:47;9.90;;;5.67;;
20090;SDS011;10205;49.678;6.560;2023-03-01T03:25:16;7.67;;;6.20;;
20090;SDS011;10205;49.678;6.560;2023-03-01T03:27:48;9.60;;;6.63;;
20090;SDS011;10205;49.678;6.560;2023-03-01T03:30:21;7.70;;;6.60;;
20090;SDS011;10205;49.678;6.560;2023-03-01T03:32:50;8.57;;;6.63;;
20090;SDS011;10205;49.678;6.560;2023-03-01T03:35:19;8.67;;;6.50;;
20090;SDS011;10205;49.678;6.560;2023-03-01T03:37:49;8.33;;;6.50;;
20090;SDS011;10205;49.678;6.560;2023-03-01T03:40:41;7.53;;;6.30;;
20090;SDS011;10205;49.678;6.560;2023-03-01T03:43:11;9.33;;;6.43;;
20090;SDS011;10205;49.678;6.560;2023-03-01T03:45:40;8.57;;;6.67;;
20090;SDS011;10205;49.678;6.560;2023-03-01T03:48:08;8.80;;;6.47;;
20090;SDS011;10205;49.678;6.560;2023-03-01T03:50:37;9.63;;;6.27;;
20090;SDS011;10205;49.678;6.560;2023-03-01T03:53:08;8.47;;;6.53;;
20090;SDS011;10205;49.678;6.560;2023-03-01T03:55:39;8.93;;;6.63;;
20090;SDS011;10205;49.678;6.560;2023-03-01T03:58:09;9.37;;;6.33;;
20090;SDS011;10205;49.678;6.560;2023-03-01T04:00:38;8.93;;;6.60;;
20090;SDS011;10205;49.678;6.560;2023-03-01T04:03:08;7.80;;;6.07;;
20090;SDS011;10205;49.678;6.560;2023-03-01T04:05:38;8.53;;;6.87;;
20090;SDS011;10205;49.678;6.560;2023-03-01T04:08:06;7.77;;;6.10;;
20090;SDS011;10205;49.678;6.560;2023-03-01T04:10:35;10.40;;;6.63;;
20090;SDS011;10205;49.678;6.560;2023-03-01T04:13:04;7.83;;;5.67;;
20090;SDS011;10205;49.678;6.560;2023-03-01T04:15:32;8.60;;;6.50;;
20090;SDS011;10205;49.678;6.560;2023-03-01T04:18:00;9.30;;;6.20;;
20090;SDS011;10205;49.678;6.560;2023-03-01T04:20:29;8.53;;;6.50;;
20090;SDS011;10205;49.678;6.560;2023-03-01T04:23:01;8.93;;;6.60;;
20090;SDS011;10205;49.678;6.560;2023-03-01T04:25:38;8.13;;;6.20;;
20090;SDS011;10205;49.678;6.560;2023-03-01T04:28:06;7.93;;;6.40;;
20090;SDS011;10205;49.678;6.560;2023-03-01T04:30:35;8.90;;;6.77;;
20090;SDS011;10205;49.678;6.560;2023-03-01T04:33:03;8.63;;;6.87;;
20090;SDS011;10205;49.678;6.560;2023-03-01T04:35:32;10.03;;;6.90;;
20090;SDS011;10205;49.678;6.560;2023-03-01T04:38:03;8.10;;;7.20;;
20090;SDS011;10205;49.678;6.560;2023-03-01T04:40:31;9.73;;;7.73;;
20090;SDS011;10205;49.678;6.560;2023-03-01T04:43:00;11.37;;;8.10;;
20090;SDS011;10205;49.678;6.560;2023-03-01T04:45:31;16.33;;;8.17;;
20090;SDS011;10205;49.678;6.560;2023-03-01T04:48:00;8.30;;;6.73;;
20090;SDS011;10205;49.678;6.560;2023-03-01T04:50:28;10.37;;;7.60;;
20090;SDS011;10205;49.678;6.560;2023-03-01T04:52:55;11.13;;;8.03;;
20090;SDS011;10205;49.678;6.560;2023-03-01T04:55:28;14.93;;;9.63;;
20090;SDS011;10205;49.678;6.560;2023-03-01T04:57:56;14.73;;;8.23;;
20090;SDS011;10205;49.678;6.560;2023-03-01T05:00:23;11.43;;;7.83;;
20090;SDS011;10205;49.678;6.560;2023-03-01T05:02:52;9.10;;;7.13;;
20090;SDS011;10205;49.678;6.560;2023-03-01T05:05:21;11.07;;;7.93;;
20090;SDS011;10205;49.678;6.560;2023-03-01T05:07:53;12.27;;;7.47;;
20090;SDS011;10205;49.678;6.560;2023-03-01T05:10:22;10.07;;;7.80;;
20090;SDS011;10205;49.678;6.560;2023-03-01T05:12:51;10.97;;;7.90;;
20090;SDS011;10205;49.678;6.560;2023-03-01T05:15:18;9.70;;;7.20;;
20090;SDS011;10205;49.678;6.560;2023-03-01T05:17:48;10.73;;;7.53;;
20090;SDS011;10205;49.678;6.560;2023-03-01T05:20:15;9.37;;;7.70;;
20090;SDS011;10205;49.678;6.560;2023-03-01T05:22:43;11.10;;;7.33;;
20090;SDS011;10205;49.678;6.560;2023-03-01T05:25:10;12.87;;;7.80;;
20090;SDS011;10205;49.678;6.560;2023-03-01T05:27:39;8.23;;;6.97;;
20090;SDS011;10205;49.678;6.560;2023-03-01T05:30:08;8.43;;;6.60;;
20090;SDS011;10205;49.678;6.560;2023-03-01T05:32:42;8.57;;;7.23;;
20090;SDS011;10205;49.678;6.560;2023-03-01T05:35:12;9.60;;;7.33;;
20090;SDS011;10205;49.678;6.560;2023-03-01T05:37:42;9.07;;;6.67;;
20090;SDS011;10205;49.678;6.560;2023-03-01T05:40:13;9.87;;;8.43;;
20090;SDS011;10205;49.678;6.560;2023-03-01T05:42:43;9.80;;;7.67;;
20090;SDS011;10205;49.678;6.560;2023-03-01T05:45:15;9.40;;;6.80;;
20090;SDS011;10205;49.678;6.560;2023-03-01T05:47:44;9.50;;;7.67;;
20090;SDS011;10205;49.678;6.560;2023-03-01T05:50:13;8.27;;;6.77;;
20090;SDS011;10205;49.678;6.560;2023-03-01T05:52:45;15.83;;;7.77;;
20090;SDS011;10205;49.678;6.560;2023-03-01T05:55:16;8.83;;;7.40;;
20090;SDS011;10205;49.678;6.560;2023-03-01T05:57:44;9.93;;;7.43;;
20090;SDS011;10205;49.678;6.560;2023-03-01T06:00:18;10.83;;;8.13;;
20090;SDS011;10205;49.678;6.560;2023-03-01T06:02:48;10.47;;;7.93;;
20090;SDS011;10205;49.678;6.560;2023-03-01T06:05:16;8.33;;;6.77;;
20090;SDS011;10205;49.678;6.560;2023-03-01T06:07:44;9.80;;;7.23;;
20090;SDS011;10205;49.678;6.560;2023-03-01T06:10:11;9.03;;;7.17;;
20090;SDS011;10205;49.678;6.560;2023-03-01T06:12:40;9.80;;;7.53;;
20090;SDS011;10205;49.678;6.560;2023-03-01T06:15:09;13.93;;;8.00;;
20090;SDS011;10205;49.678;6.560;2023-03-01T06:17:40;11.17;;;7.57;;
20090;SDS011;10205;49.678;6.560;2023-03-01T06:20:15;12.57;;;8.23;;
20090;SDS011;10205;49.678;6.560;2023-03-01T06:22:45;13.77;;;7.80;;
20090;SDS011;10205;49.678;6.560;2023-03-01T06:25:13;10.57;;;7.60;;
20090;SDS011;10205;49.678;6.560;2023-03-01T06:27:43;12.07;;;7.37;;
20090;SDS011;10205;49.678;6.560;2023-03-01T06:30:11;11.57;;;7.87;;
20090;SDS011;10205;49.678;6.560;2023-03-01T06:32:43;12.67;;;7.93;;
20090;SDS011;10205;49.678;6.560;2023-03-01T06:35:11;12.53;;;8.17;;
20090;SDS011;10205;49.678;6.560;2023-03-01T06:37:42;12.67;;;8.20;;
20090;SDS011;10205;49.678;6.560;2023-03-01T06:40:10;10.33;;;7.53;;
20090;SDS011;10205;49.678;6.560;2023-03-01T06:42:39;10.97;;;7.47;;
20090;SDS011;10205;49.678;6.560;2023-03-01T06:45:10;11.50;;;7.60;;
20090;SDS011;10205;49.678;6.560;2023-03-01T06:47:37;17.70;;;8.80;;
20090;SDS011;10205;49.678;6.560;2023-03-01T06:50:06;12.10;;;9.17;;
20090;SDS011;10205;49.678;6.560;2023-03-01T06:52:35;8.67;;;7.77;;
20090;SDS011;10205;49.678;6.560;2023-03-01T06:55:03;14.40;;;8.47;;
20090;SDS011;10205;49.678;6.560;2023-03-01T06:57:31;12.70;;;8.30;;
20090;SDS011;10205;49.678;6.560;2023-03-01T06:59:59;12.33;;;8.87;;
20090;SDS011;10205;49.678;6.560;2023-03-01T07:02:26;13.07;;;8.83;;
20090;SDS011;10205;49.678;6.560;2023-03-01T07:04:53;14.20;;;9.00;;
20090;SDS011;10205;49.678;6.560;2023-03-01T07:07:23;14.77;;;9.10;;
20090;SDS011;10205;49.678;6.560;2023-03-01T07:09:50;10.27;;;8.10;;
20090;SDS011;10205;49.678;6.560;2023-03-01T07:12:18;13.33;;;8.90;;
20090;SDS011;10205;49.678;6.560;2023-03-01T07:14:45;12.30;;;9.03;;
20090;SDS011;10205;49.678;6.560;2023-03-01T07:17:12;13.43;;;8.87;;
20090;SDS011;10205;49.678;6.560;2023-03-01T07:19:39;13.00;;;9.43;;
20090;SDS011;10205;49.678;6.560;2023-03-01T07:22:06;13.97;;;9.47;;
20090;SDS011;10205;49.678;6.560;2023-03-01T07:24:35;12.67;;;9.70;;
20090;SDS011;10205;49.678;6.560;2023-03-01T07:27:02;13.20;;;9.40;;
20090;SDS011;10205;49.678;6.560;2023-03-01T07:29:29;13.27;;;8.80;;
20090;SDS011;10205;49.678;6.560;2023-03-01T07:31:57;12.63;;;8.90;;
20090;SDS011;10205;49.678;6.560;2023-03-01T07:34:26;13.83;;;10.10;;
20090;SDS011;10205;49.678;6.560;2023-03-01T07:36:53;14.53;;;10.00;;
20090;SDS011;10205;49.678;6.560;2023-03-01T07:39:20;14.63;;;9.57;;
20090;SDS011;10205;49.678;6.560;2023-03-01T07:41:50;16.30;;;10.43;;
20090;SDS011;10205;49.678;6.560;2023-03-01T07:44:17;13.73;;;9.67;;
20090;SDS011;10205;49.678;6.560;2023-03-01T07:46:45;17.10;;;9.50;;
20090;SDS011;10205;49.678;6.560;2023-03-01T07:49:12;13.83;;;10.80;;
20090;SDS011;10205;49.678;6.560;2023-03-01T07:51:39;14.03;;;9.40;;
20090;SDS011;10205;49.678;6.560;2023-03-01T07:54:07;13.87;;;9.43;;
20090;SDS011;10205;49.678;6.560;2023-03-01T07:56:34;14.23;;;8.87;;
20090;SDS011;10205;49.678;6.560;2023-03-01T07:59:02;13.70;;;10.10;;
20090;SDS011;10205;49.678;6.560;2023-03-01T08:01:29;11.97;;;8.80;;
20090;SDS011;10205;49.678;6.560;2023-03-01T08:03:56;14.67;;;10.20;;
20090;SDS011;10205;49.678;6.560;2023-03-01T08:06:23;15.33;;;10.20;;
20090;SDS011;10205;49.678;6.560;2023-03-01T08:08:50;16.07;;;10.37;;
20090;SDS011;10205;49.678;6.560;2023-03-01T08:11:20;18.23;;;10.50;;
20090;SDS011;10205;49.678;6.560;2023-03-01T08:13:48;12.70;;;9.03;;
20090;SDS011;10205;49.678;6.560;2023-03-01T08:16:16;14.83;;;10.43;;
20090;SDS011;10205;49.678;6.560;2023-03-01T08:18:43;13.97;;;9.93;;
20090;SDS011;10205;49.678;6.560;2023-03-01T08:21:11;12.83;;;9.50;;
20090;SDS011;10205;49.678;6.560;2023-03-01T08:23:40;15.47;;;10.70;;
20090;SDS011;10205;49.678;6.560;2023-03-01T08:26:09;14.67;;;10.30;;
20090;SDS011;10205;49.678;6.560;2023-03-01T08:28:38;17.13;;;10.90;;
20090;SDS011;10205;49.678;6.560;2023-03-01T08:31:13;25.73;;;10.60;;
20090;SDS011;10205;49.678;6.560;2023-03-01T08:33:45;15.87;;;10.53;;
20090;SDS011;10205;49.678;6.560;2023-03-01T08:36:15;17.03;;;11.33;;
20090;SDS011;10205;49.678;6.560;2023-03-01T08:38:43;18.37;;;10.87;;
20090;SDS011;10205;49.678;6.560;2023-03-01T08:41:10;17.97;;;10.43;;
20090;SDS011;10205;49.678;6.560;2023-03-01T08:43:37;14.17;;;10.53;;
20090;SDS011;10205;49.678;6.560;2023-03-01T08:46:04;19.57;;;11.00;;
20090;SDS011;10205;49.678;6.560;2023-03-01T08:48:33;16.93;;;11.40;;
20090;SDS011;10205;49.678;6.560;2023-03-01T08:51:06;14.70;;;10.53;;
20090;SDS011;10205;49.678;6.560;2023-03-01T08:53:34;15.07;;;9.73;;
20090;SDS011;10205;49.678;6.560;2023-03-01T08:56:01;14.63;;;9.93;;
20090;SDS011;10205;49.678;6.560;2023-03-01T08:58:29;16.43;;;11.17;;
20090;SDS011;10205;49.678;6.560;2023-03-01T09:00:57;15.60;;;11.03;;
20090;SDS011;10205;49.678;6.560;2023-03-01T09:03:24;16.17;;;11.23;;
20090;SDS011;10205;49.678;6.560;2023-03-01T09:05:53;18.13;;;11.73;;
20090;SDS011;10205;49.678;6.560;2023-03-01T09:08:27;16.77;;;11.43;;
20090;SDS011;10205;49.678;6.560;2023-03-01T09:10:54;20.53;;;11.47;;
20090;SDS011;10205;49.678;6.560;2023-03-01T09:13:21;17.57;;;11.27;;
20090;SDS011;10205;49.678;6.560;2023-03-01T09:15:49;15.13;;;10.60;;
20090;SDS011;10205;49.678;6.560;2023-03-01T09:18:17;15.10;;;10.77;;
20090;SDS011;10205;49.678;6.560;2023-03-01T09:20:44;18.83;;;11.33;;
20090;SDS011;10205;49.678;6.560;2023-03-01T09:23:13;17.33;;;12.27;;
20090;SDS011;10205;49.678;6.560;2023-03-01T09:25:40;19.73;;;11.13;;
20090;SDS011;10205;49.678;6.560;2023-03-01T09:28:07;17.87;;;11.53;;
20090;SDS011;10205;49.678;6.560;2023-03-01T09:30:35;18.30;;;11.47;;
20090;SDS011;10205;49.678;6.560;2023-03-01T09:33:02;16.10;;;11.33;;
20090;SDS011;10205;49.678;6.560;2023-03-01T09:35:29;16.33;;;11.13;;
20090;SDS011;10205;49.678;6.560;2023-03-01T09:38:00;18.90;;;11.87;;
20090;SDS011;10205;49.678;6.560;2023-03-01T09:40:28;15.17;;;10.97;;
20090;SDS011;10205;49.678;6.560;2023-03-01T09:42:56;15.93;;;11.93;;
20090;SDS011;10205;49.678;6.560;2023-03-01T09:45:33;15.87;;;11.47;;
20090;SDS011;10205;49.678;6.560;2023-03-01T09:48:04;18.57;;;11.67;;
20090;SDS011;10205;49.678;6.560;2023-03-01T09:50:39;16.73;;;10.67;;
20090;SDS011;10205;49.678;6.560;2023-03-01T09:53:12;15.37;;;11.20;;
20090;SDS011;10205;49.678;6.560;2023-03-01T09:55:44;15.77;;;10.80;;
20090;SDS011;10205;49.678;6.560;2023-03-01T09:58:25;16.23;;;10.80;;
20090;SDS011;10205;49.678;6.560;2023-03-01T10:01:13;17.73;;;12.03;;
20090;SDS011;10205;49.678;6.560;2023-03-01T10:04:02;15.90;;;11.70;;
20090;SDS011;10205;49.678;6.560;2023-03-01T10:06:51;14.37;;;10.27;;
20090;SDS011;10205;49.678;6.560;2023-03-01T10:09:33;15.13;;;10.90;;
20090;SDS011;10205;49.678;6.560;2023-03-01T10:12:07;15.60;;;10.37;;
20090;SDS011;10205;49.678;6.560;2023-03-01T10:14:41;15.90;;;10.77;;
20090;SDS011;10205;49.678;6.560;2023-03-01T10:17:19;17.40;;;11.00;;
20090;SDS011;10205;49.678;6.560;2023-03-01T10:19:54;16.00;;;11.20;;
20090;SDS011;10205;49.678;6.560;2023-03-01T10:22:32;16.93;;;11.53;;
20090;SDS011;10205;49.678;6.560;2023-03-01T10:24:59;13.40;;;10.20;;
20090;SDS011;10205;49.678;6.560;2023-03-01T10:27:34;17.10;;;10.93;;
20090;SDS011;10205;49.678;6.560;2023-03-01T10:30:13;14.37;;;10.90;;
20090;SDS011;10205;49.678;6.560;2023-03-01T10:32:47;15.63;;;9.90;;
20090;SDS011;10205;49.678;6.560;2023-03-01T10:35:18;14.07;;;10.87;;
20090;SDS011;10205;49.678;6.560;2023-03-01T10:37:58;14.53;;;10.83;;
20090;SDS011;10205;49.678;6.560;2023-03-01T10:40:30;13.63;;;9.93;;
20090;SDS011;10205;49.678;6.560;2023-03-01T10:43:03;16.33;;;10.63;;
20090;SDS011;10205;49.678;6.560;2023-03-01T10:45:34;14.17;;;11.03;;
20090;SDS011;10205;49.678;6.560;2023-03-01T10:48:05;16.27;;;10.73;;
20090;SDS011;10205;49.678;6.560;2023-03-01T10:50:39;17.43;;;11.30;;
20090;SDS011;10205;49.678;6.560;2023-03-01T10:53:16;13.07;;;9.67;;
20090;SDS011;10205;49.678;6.560;2023-03-01T10:55:57;14.97;;;10.80;;
20090;SDS011;10205;49.678;6.560;2023-03-01T10:58:30;14.00;;;10.27;;
20090;SDS011;10205;49.678;6.560;2023-03-01T11:00:59;15.33;;;10.57;;
20090;SDS011;10205;49.678;6.560;2023-03-01T11:03:28;17.67;;;11.47;;
20090;SDS011;10205;49.678;6.560;2023-03-01T11:06:01;15.30;;;10.77;;
20090;SDS011;10205;49.678;6.560;2023-03-01T11:08:36;14.97;;;10.63;;
20090;SDS011;10205;49.678;6.560;2023-03-01T11:13:59;15.57;;;10.70;;
20090;SDS011;10205;49.678;6.560;2023-03-01T11:16:31;14.90;;;10.70;;
20090;SDS011;10205;49.678;6.560;2023-03-01T11:19:06;17.10;;;10.63;;
20090;SDS011;10205;49.678;6.560;2023-03-01T11:21:55;14.10;;;10.57;;
20090;SDS011;10205;49.678;6.560;2023-03-01T11:24:30;15.17;;;11.17;;
20090;SDS011;10205;49.678;6.560;2023-03-01T11:27:08;15.83;;;11.27;;
20090;SDS011;10205;49.678;6.560;2023-03-01T11:29:46;18.13;;;11.60;;
20090;SDS011;10205;49.678;6.560;2023-03-01T11:32:20;14.67;;;11.10;;
20090;SDS011;10205;49.678;6.560;2023-03-01T11:34:55;13.60;;;10.50;;
20090;SDS011;10205;49.678;6.560;2023-03-01T11:37:28;15.73;;;12.13;;
20090;SDS011;10205;49.678;6.560;2023-03-01T11:40:09;15.37;;;11.93;;
20090;SDS011;10205;49.678;6.560;2023-03-01T11:42:53;15.20;;;11.57;;
20090;SDS011;10205;49.678;6.560;2023-03-01T11:45:35;16.87;;;11.13;;
20090;SDS011;10205;49.678;6.560;2023-03-01T11:48:26;13.20;;;10.57;;
20090;SDS011;10205;49.678;6.560;2023-03-01T11:51:12;16.57;;;11.97;;
20090;SDS011;10205;49.678;6.560;2023-03-01T11:53:56;16.17;;;11.43;;
20090;SDS011;10205;49.678;6.560;2023-03-01T11:56:35;15.07;;;11.83;;
20090;SDS011;10205;49.678;6.560;2023-03-01T11:59:13;13.80;;;11.10;;
20090;SDS011;10205;49.678;6.560;2023-03-01T12:02:10;14.50;;;10.50;;
20090;SDS011;10205;49.678;6.560;2023-03-01T12:05:18;18.90;;;11.33;;
20090;SDS011;10205;49.678;6.560;2023-03-01T12:08:04;13.73;;;10.97;;
20090;SDS011;10205;49.678;6.560;2023-03-01T12:10:42;15.13;;;10.17;;
20090;SDS011;10205;49.678;6.560;2023-03-01T12:13:35;14.33;;;10.27;;
20090;SDS011;10205;49.678;6.560;2023-03-01T12:16:52;13.40;;;10.67;;
20090;SDS011;10205;49.678;6.560;2023-03-01T12:20:01;14.63;;;10.70;;
20090;SDS011;10205;49.678;6.560;2023-03-01T12:22:45;15.90;;;12.10;;
20090;SDS011;10205;49.678;6.560;2023-03-01T12:25:30;15.57;;;11.37;;
20090;SDS011;10205;49.678;6.560;2023-03-01T12:28:04;14.63;;;11.47;;
20090;SDS011;10205;49.678;6.560;2023-03-01T12:31:00;15.10;;;11.17;;
20090;SDS011;10205;49.678;6.560;2023-03-01T12:34:05;13.20;;;10.97;;
20090;SDS011;10205;49.678;6.560;2023-03-01T12:36:51;14.33;;;11.20;;
20090;SDS011;10205;49.678;6.560;2023-03-01T12:39:50;17.30;;;11.87;;
20090;SDS011;10205;49.678;6.560;2023-03-01T12:42:38;18.57;;;13.40;;
20090;SDS011;10205;49.678;6.560;2023-03-01T12:45:30;17.90;;;11.30;;
20090;SDS011;10205;49.678;6.560;2023-03-01T12:48:18;12.47;;;10.50;;
20090;SDS011;10205;49.678;6.560;2023-03-01T12:51:03;15.10;;;12.00;;
20090;SDS011;10205;49.678;6.560;2023-03-01T12:53:39;15.40;;;11.90;;
20090;SDS011;10205;49.678;6.560;2023-03-01T12:56:10;12.43;;;11.13;;
20090;SDS011;10205;49.678;6.560;2023-03-01T12:58:46;16.47;;;12.07;;
20090;SDS011;10205;49.678;6.560;2023-03-01T13:01:30;17.73;;;11.90;;
20090;SDS011;10205;49.678;6.560;2023-03-01T13:04:08;15.97;;;12.03;;
20090;SDS011;10205;49.678;6.560;2023-03-01T13:06:53;13.13;;;10.97;;
20090;SDS011;10205;49.678;6.560;2023-03-01T13:09:34;15.93;;;11.97;;
20090;SDS011;10205;49.678;6.560;2023-03-01T13:15:24;15.53;;;12.27;;
20090;SDS011;10205;49.678;6.560;2023-03-01T13:17:56;14.65;;;11.35;;
20090;SDS011;10205;49.678;6.560;2023-03-01T13:20:25;18.40;;;12.03;;
20090;SDS011;10205;49.678;6.560;2023-03-01T13:23:11;17.48;;;11.35;;
20090;SDS011;10205;49.678;6.560;2023-03-01T13:26:07;15.37;;;11.77;;
20090;SDS011;10205;49.678;6.560;2023-03-01T13:37:34;15.07;;;11.33;;
20090;SDS011;10205;49.678;6.560;2023-03-01T13:40:05;12.27;;;10.53;;
20090;SDS011;10205;49.678;6.560;2023-03-01T13:43:37;15.03;;;11.30;;
20090;SDS011;10205;49.678;6.560;2023-03-01T13:46:08;17.27;;;11.90;;
20090;SDS011;10205;49.678;6.560;2023-03-01T13:48:42;18.27;;;12.17;;
20090;SDS011;10205;49.678;6.560;2023-03-01T13:51:13;13.40;;;10.67;;
20090;SDS011;10205;49.678;6.560;2023-03-01T13:53:42;16.83;;;12.87;;
20090;SDS011;10205;49.678;6.560;2023-03-01T13:56:14;15.50;;;11.60;;
20090;SDS011;10205;49.678;6.560;2023-03-01T13:58:51;16.60;;;11.90;;
20090;SDS011;10205;49.678;6.560;2023-03-01T14:01:25;14.57;;;11.43;;
20090;SDS011;10205;49.678;6.560;2023-03-01T14:03:55;14.80;;;11.37;;
20090;SDS011;10205;49.678;6.560;2023-03-01T14:06:23;13.00;;;10.57;;
20090;SDS011;10205;49.678;6.560;2023-03-01T14:09:00;15.87;;;11.30;;
20090;SDS011;10205;49.678;6.560;2023-03-01T14:11:41;17.43;;;11.03;;
20090;SDS011;10205;49.678;6.560;2023-03-01T14:15:04;18.70;;;11.30;;
20090;SDS011;10205;49.678;6.560;2023-03-01T14:17:50;14.10;;;11.60;;
20090;SDS011;10205;49.678;6.560;2023-03-01T14:20:27;13.63;;;10.13;;
20090;SDS011;10205;49.678;6.560;2023-03-01T14:23:01;14.23;;;10.33;;
20090;SDS011;10205;49.678;6.560;2023-03-01T14:25:37;15.40;;;10.80;;
20090;SDS011;10205;49.678;6.560;2023-03-01T14:28:12;14.20;;;10.77;;
20090;SDS011;10205;49.678;6.560;2023-03-01T14:30:45;17.47;;;11.43;;
20090;SDS011;10205;49.678;6.560;2023-03-01T14:33:18;16.70;;;11.47;;
20090;SDS011;10205;49.678;6.560;2023-03-01T14:35:52;12.90;;;9.93;;
20090;SDS011;10205;49.678;6.560;2023-03-01T14:38:29;14.30;;;9.97;;
20090;SDS011;10205;49.678;6.560;2023-03-01T14:41:03;15.60;;;10.40;;
20090;SDS011;10205;49.678;6.560;2023-03-01T14:43:35;14.00;;;10.63;;
20090;SDS011;10205;49.678;6.560;2023-03-01T14:46:15;15.13;;;11.67;;
20090;SDS011;10205;49.678;6.560;2023-03-01T14:48:48;12.13;;;9.73;;
20090;SDS011;10205;49.678;6.560;2023-03-01T14:51:17;14.43;;;11.00;;
20090;SDS011;10205;49.678;6.560;2023-03-01T14:53:44;15.40;;;11.00;;
20090;SDS011;10205;49.678;6.560;2023-03-01T14:56:13;15.07;;;10.57;;
20090;SDS011;10205;49.678;6.560;2023-03-01T14:58:42;13.43;;;10.00;;
20090;SDS011;10205;49.678;6.560;2023-03-01T15:01:18;13.10;;;10.67;;
20090;SDS011;10205;49.678;6.560;2023-03-01T15:03:46;13.33;;;9.87;;
20090;SDS011;10205;49.678;6.560;2023-03-01T15:06:16;12.85;;;10.30;;
20090;SDS011;10205;49.678;6.560;2023-03-01T15:08:47;11.83;;;9.87;;
20090;SDS011;10205;49.678;6.560;2023-03-01T15:11:17;12.33;;;9.63;;
20090;SDS011;10205;49.678;6.560;2023-03-01T15:13:49;16.67;;;10.20;;
20090;SDS011;10205;49.678;6.560;2023-03-01T15:16:20;11.02;;;8.68;;
20090;SDS011;10205;49.678;6.560;2023-03-01T15:18:51;13.30;;;11.27;;
20090;SDS011;10205;49.678;6.560;2023-03-01T15:21:21;13.83;;;10.77;;
20090;SDS011;10205;49.678;6.560;2023-03-01T15:23:52;13.93;;;10.07;;
20090;SDS011;10205;49.678;6.560;2023-03-01T15:26:38;11.23;;;9.47;;
20090;SDS011;10205;49.678;6.560;2023-03-01T15:29:11;12.20;;;9.77;;
20090;SDS011;10205;49.678;6.560;2023-03-01T15:31:53;12.97;;;10.13;;
20090;SDS011;10205;49.678;6.560;2023-03-01T15:34:23;11.10;;;9.67;;
20090;SDS011;10205;49.678;6.560;2023-03-01T15:36:53;15.50;;;9.90;;
20090;SDS011;10205;49.678;6.560;2023-03-01T15:39:30;12.67;;;9.73;;
20090;SDS011;10205;49.678;6.560;2023-03-01T15:42:08;13.13;;;9.33;;
20090;SDS011;10205;49.678;6.560;2023-03-01T15:44:39;13.50;;;9.57;;
20090;SDS011;10205;49.678;6.560;2023-03-01T15:47:25;11.30;;;9.10;;
20090;SDS011;10205;49.678;6.560;2023-03-01T15:49:56;11.10;;;8.97;;
20090;SDS011;10205;49.678;6.560;2023-03-01T15:52:27;10.47;;;8.23;;
20090;SDS011;10205;49.678;6.560;2023-03-01T15:55:02;13.37;;;9.97;;
20090;SDS011;10205;49.678;6.560;2023-03-01T15:57:43;14.00;;;9.23;;
20090;SDS011;10205;49.678;6.560;2023-03-01T16:00:10;12.60;;;9.30;;
20090;SDS011;10205;49.678;6.560;2023-03-01T16:02:41;11.67;;;8.30;;
20090;SDS011;10205;49.678;6.560;2023-03-01T16:05:14;12.00;;;9.07;;
20090;SDS011;10205;49.678;6.560;2023-03-01T16:07:45;9.77;;;7.63;;
20090;SDS011;10205;49.678;6.560;2023-03-01T16:10:12;10.60;;;7.87;;
20090;SDS011;10205;49.678;6.560;2023-03-01T16:12:40;9.53;;;7.60;;
20090;SDS011;10205;49.678;6.560;2023-03-01T16:15:11;9.63;;;7.73;;
20090;SDS011;10205;49.678;6.560;2023-03-01T16:17:45;8.80;;;7.40;;
20090;SDS011;10205;49.678;6.560;2023-03-01T16:20:13;9.53;;;7.50;;
20090;SDS011;10205;49.678;6.560;2023-03-01T16:22:44;10.63;;;7.70;;
20090;SDS011;10205;49.678;6.560;2023-03-01T16:25:12;10.10;;;8.40;;
20090;SDS011;10205;49.678;6.560;2023-03-01T16:27:43;11.10;;;7.60;;
20090;SDS011;10205;49.678;6.560;2023-03-01T16:30:11;11.17;;;7.70;;
20090;SDS011;10205;49.678;6.560;2023-03-01T16:32:40;9.40;;;7.00;;
20090;SDS011;10205;49.678;6.560;2023-03-01T16:35:11;9.53;;;7.20;;
20090;SDS011;10205;49.678;6.560;2023-03-01T16:37:40;10.40;;;7.90;;
20090;SDS011;10205;49.678;6.560;2023-03-01T16:40:14;9.93;;;7.57;;
20090;SDS011;10205;49.678;6.560;2023-03-01T16:42:45;10.38;;;7.93;;
20090;SDS011;10205;49.678;6.560;2023-03-01T16:45:13;8.77;;;6.80;;
20090;SDS011;10205;49.678;6.560;2023-03-01T16:47:40;8.10;;;6.30;;
20090;SDS011;10205;49.678;6.560;2023-03-01T16:50:08;7.53;;;6.53;;
20090;SDS011;10205;49.678;6.560;2023-03-01T16:52:37;8.13;;;6.73;;
20090;SDS011;10205;49.678;6.560;2023-03-01T16:55:05;9.27;;;6.43;;
20090;SDS011;10205;49.678;6.560;2023-03-01T16:57:35;7.97;;;5.85;;
20090;SDS011;10205;49.678;6.560;2023-03-01T17:00:02;8.63;;;6.00;;
20090;SDS011;10205;49.678;6.560;2023-03-01T17:02:32;9.63;;;6.53;;
20090;SDS011;10205;49.678;6.560;2023-03-01T17:05:00;7.23;;;5.30;;
20090;SDS011;10205;49.678;6.560;2023-03-01T17:07:29;7.72;;;5.60;;
20090;SDS011;10205;49.678;6.560;2023-03-01T17:09:58;7.03;;;5.37;;
20090;SDS011;10205;49.678;6.560;2023-03-01T17:12:25;6.88;;;5.65;;
20090;SDS011;10205;49.678;6.560;2023-03-01T17:14:52;7.27;;;5.63;;
20090;SDS011;10205;49.678;6.560;2023-03-01T17:17:19;7.38;;;5.65;;
20090;SDS011;10205;49.678;6.560;2023-03-01T17:19:47;6.82;;;5.40;;
20090;SDS011;10205;49.678;6.560;2023-03-01T17:22:14;5.63;;;5.03;;
20090;SDS011;10205;49.678;6.560;2023-03-01T17:24:43;7.70;;;6.00;;
20090;SDS011;10205;49.678;6.560;2023-03-01T17:27:11;6.20;;;5.23;;
20090;SDS011;10205;49.678;6.560;2023-03-01T17:29:42;8.07;;;6.13;;
20090;SDS011;10205;49.678;6.560;2023-03-01T17:32:09;6.68;;;5.78;;
20090;SDS011;10205;49.678;6.560;2023-03-01T17:34:36;6.73;;;5.40;;
20090;SDS011;10205;49.678;6.560;2023-03-01T17:37:03;7.93;;;5.13;;
20090;SDS011;10205;49.678;6.560;2023-03-01T17:39:30;5.90;;;5.07;;
20090;SDS011;10205;49.678;6.560;2023-03-01T17:42:01;7.00;;;5.53;;
20090;SDS011;10205;49.678;6.560;2023-03-01T17:44:31;6.10;;;5.33;;
20090;SDS011;10205;49.678;6.560;2023-03-01T17:46:59;7.47;;;5.60;;
20090;SDS011;10205;49.678;6.560;2023-03-01T17:49:26;6.63;;;5.28;;
20090;SDS011;10205;49.678;6.560;2023-03-01T17:51:53;5.60;;;4.63;;
20090;SDS011;10205;49.678;6.560;2023-03-01T17:54:20;6.10;;;5.20;;
20090;SDS011;10205;49.678;6.560;2023-03-01T17:56:47;7.23;;;5.10;;